createdAt,value
2018-09-12T00:03:55.335Z,58.90
2018-09-12T00:08:58.437Z,58.90
2018-09-12T00:14:01.564Z,58.80
2018-09-12T00:19:04.687Z,58.80
2018-09-12T00:24:07.811Z,58.90
2018-09-12T00:29:10.919Z,59.10
2018-09-12T00:34:14.042Z,59.20
2018-09-12T00:39:17.123Z,59.30
2018-09-12T00:44:20.246Z,59.10
2018-09-12T00:49:23.364Z,59.30
2018-09-12T00:54:26.454Z,59.50
2018-09-12T00:59:29.572Z,59.50
2018-09-12T01:04:32.679Z,59.40
2018-09-12T01:09:35.876Z,59.40
2018-09-12T01:14:38.962Z,59.50
2018-09-12T01:19:42.184Z,59.60
2018-09-12T01:24:45.284Z,59.70
2018-09-12T01:29:48.392Z,59.80
2018-09-12T01:34:51.498Z,59.60
2018-09-12T01:39:54.599Z,59.90
2018-09-12T01:44:57.699Z,59.70
2018-09-12T01:50:00.804Z,59.90
2018-09-12T01:55:03.920Z,59.90
2018-09-12T02:00:12.093Z,59.90
2018-09-12T02:05:15.190Z,59.90
2018-09-12T02:10:18.287Z,60.00
2018-09-12T02:15:21.375Z,60.20
2018-09-12T02:20:24.473Z,60.20
2018-09-12T02:25:27.567Z,60.20
2018-09-12T02:30:30.664Z,60.90
2018-09-12T02:35:33.727Z,61.20
2018-09-12T02:40:36.792Z,61.10
2018-09-12T02:45:39.888Z,61.10
2018-09-12T02:50:42.971Z,61.30
2018-09-12T02:55:46.041Z,61.30
2018-09-12T03:00:49.144Z,61.30
2018-09-12T03:05:52.236Z,61.60
2018-09-12T03:10:55.343Z,61.70
2018-09-12T03:15:58.473Z,61.50
2018-09-12T03:21:01.789Z,62.10
2018-09-12T03:26:04.752Z,62.00
2018-09-12T03:31:08.837Z,62.10
2018-09-12T03:36:11.942Z,62.10
2018-09-12T03:41:15.041Z,62.40
2018-09-12T03:46:18.159Z,62.50
2018-09-12T03:51:21.259Z,62.40
2018-09-12T03:56:24.444Z,62.70
2018-09-12T04:01:27.654Z,62.70
2018-09-12T04:06:30.720Z,62.80
2018-09-12T04:11:33.802Z,62.80
2018-09-12T04:16:36.898Z,62.30
2018-09-12T04:21:39.995Z,62.70
2018-09-12T04:26:43.184Z,62.60
2018-09-12T04:31:46.275Z,62.30
2018-09-12T04:36:49.365Z,62.50
2018-09-12T04:41:52.472Z,62.40
2018-09-12T04:46:55.579Z,62.70
2018-09-12T04:51:58.682Z,60.80
2018-09-12T04:57:01.777Z,62.30
2018-09-12T05:02:04.880Z,61.60
2018-09-12T05:07:08.024Z,61.20
2018-09-12T05:12:11.128Z,60.80
2018-09-12T05:17:14.242Z,61.50
2018-09-12T05:22:17.351Z,61.70
2018-09-12T05:27:20.479Z,61.30
2018-09-12T05:32:23.572Z,61.40
2018-09-12T05:37:26.652Z,60.90
2018-09-12T05:42:29.724Z,60.70
2018-09-12T05:47:32.879Z,60.30
2018-09-12T05:52:36.036Z,60.50
2018-09-12T05:57:39.359Z,60.80
2018-09-12T06:02:42.439Z,60.30
2018-09-12T06:07:45.528Z,60.50
2018-09-12T06:12:48.627Z,60.80
2018-09-12T06:17:51.739Z,60.50
2018-09-12T06:22:55.007Z,59.70
2018-09-12T06:27:58.110Z,60.20
2018-09-12T06:33:01.223Z,60.20
2018-09-12T06:38:04.358Z,60.00
2018-09-12T06:43:07.735Z,60.70
2018-09-12T06:48:10.864Z,60.50
2018-09-12T06:53:13.950Z,61.40
2018-09-12T06:58:17.014Z,61.20
2018-09-12T07:03:20.222Z,61.30
2018-09-12T07:08:23.339Z,61.30
2018-09-12T07:13:26.447Z,61.30
2018-09-12T07:18:29.544Z,61.30
2018-09-12T07:23:32.754Z,61.60
2018-09-12T07:28:35.839Z,61.50
2018-09-12T07:33:38.947Z,63.00
2018-09-12T07:38:42.041Z,62.30
2018-09-12T07:43:46.119Z,63.00
2018-09-12T07:48:49.324Z,62.60
2018-09-12T07:53:52.421Z,63.30
2018-09-12T07:58:55.761Z,62.80
2018-09-12T08:03:58.838Z,63.20
2018-09-12T08:09:01.934Z,62.50
2018-09-12T08:14:05.146Z,63.30
2018-09-12T08:19:08.309Z,63.10
2018-09-12T08:24:11.378Z,63.10
2018-09-12T08:29:14.480Z,63.20
2018-09-12T08:34:17.604Z,62.40
2018-09-12T08:39:20.699Z,62.90
2018-09-12T08:44:23.816Z,62.00
2018-09-12T08:49:27.015Z,62.00
2018-09-12T08:54:30.222Z,62.00
2018-09-12T08:59:33.406Z,62.00
2018-09-12T09:04:36.527Z,62.70
2018-09-12T09:09:39.627Z,62.50
2018-09-12T09:14:42.827Z,62.90
2018-09-12T09:19:45.953Z,62.80
2018-09-12T09:24:49.046Z,63.50
2018-09-12T09:29:52.292Z,63.30
2018-09-12T09:34:55.667Z,63.80
2018-09-12T09:39:58.702Z,64.00
2018-09-12T09:45:01.920Z,64.00
2018-09-12T09:50:05.102Z,64.10
2018-09-12T09:55:08.229Z,64.40
2018-09-12T10:00:16.804Z,64.80
2018-09-12T10:05:29.092Z,64.70
2018-09-12T10:10:32.207Z,65.10
2018-09-12T10:15:35.300Z,65.80
2018-09-12T10:20:38.504Z,65.50
2018-09-12T10:25:41.623Z,64.90
2018-09-12T10:30:44.719Z,65.50
2018-09-12T10:35:47.815Z,65.10
2018-09-12T10:40:50.971Z,65.50
2018-09-12T10:45:54.055Z,65.70
2018-09-12T10:50:57.159Z,65.90
2018-09-12T10:56:00.264Z,65.80
2018-09-12T11:01:03.371Z,65.80
2018-09-12T11:06:06.507Z,65.50
2018-09-12T11:11:09.664Z,65.20
2018-09-12T11:16:12.775Z,64.20
2018-09-12T11:21:15.962Z,63.50
2018-09-12T11:26:19.080Z,64.00
2018-09-12T11:31:22.239Z,63.70
2018-09-12T11:36:25.359Z,63.80
2018-09-12T11:41:28.459Z,63.10
2018-09-12T11:46:32.851Z,63.00
2018-09-12T11:51:36.021Z,62.50
2018-09-12T11:56:39.127Z,62.90
2018-09-12T12:01:42.243Z,63.00
2018-09-12T12:06:45.383Z,63.20
2018-09-12T12:11:48.571Z,63.40
2018-09-12T12:16:51.790Z,64.00
2018-09-12T12:21:54.883Z,63.90
2018-09-12T12:26:58.008Z,64.50
2018-09-12T12:32:01.156Z,64.30
2018-09-12T12:37:04.294Z,64.50
2018-09-12T12:42:07.403Z,64.40
2018-09-12T12:47:10.514Z,64.80
2018-09-12T12:52:13.625Z,65.40
2018-09-12T12:57:16.729Z,65.90
2018-09-12T13:02:19.795Z,66.20
2018-09-12T13:07:29.327Z,66.20
2018-09-12T13:12:32.433Z,66.10
2018-09-12T13:17:35.548Z,66.30
2018-09-12T13:22:38.645Z,66.40
2018-09-12T13:27:41.909Z,66.80
2018-09-12T13:32:44.950Z,66.80
2018-09-12T13:37:48.072Z,67.00
2018-09-12T13:42:51.160Z,67.30
2018-09-12T13:47:54.277Z,67.30
2018-09-12T13:52:57.383Z,67.30
2018-09-12T13:58:00.559Z,67.50
2018-09-12T14:03:03.949Z,67.20
2018-09-12T14:08:07.020Z,67.50
2018-09-12T14:13:10.148Z,67.20
2018-09-12T14:18:13.311Z,67.60
2018-09-12T14:23:16.399Z,67.30
2018-09-12T14:28:19.477Z,67.60
2018-09-12T14:33:22.578Z,68.20
2018-09-12T14:38:25.724Z,67.80
2018-09-12T14:43:28.847Z,67.80
2018-09-12T14:48:32.043Z,68.20
2018-09-12T14:53:35.148Z,67.50
2018-09-12T14:58:38.264Z,67.50
2018-09-12T15:03:41.406Z,66.90
2018-09-12T15:08:44.589Z,66.80
2018-09-12T15:13:47.821Z,66.50
2018-09-12T15:18:50.905Z,66.80
2018-09-12T15:23:53.967Z,66.50
2018-09-12T15:28:57.120Z,66.60
2018-09-12T15:34:00.330Z,65.20
2018-09-12T15:39:04.027Z,65.10
2018-09-12T15:44:08.211Z,65.50
2018-09-12T15:49:11.307Z,65.50
2018-09-12T15:54:14.396Z,65.10
2018-09-12T15:59:17.601Z,65.10
2018-09-12T16:04:21.186Z,64.80
2018-09-12T16:09:24.279Z,65.10
2018-09-12T16:14:27.407Z,64.90
2018-09-12T16:19:30.519Z,64.90
2018-09-12T16:24:33.630Z,64.90
2018-09-12T16:29:36.744Z,65.00
2018-09-12T16:34:39.860Z,65.00
2018-09-12T16:39:42.950Z,65.20
2018-09-12T16:44:46.059Z,64.70
2018-09-12T16:49:49.267Z,65.10
2018-09-12T16:54:52.382Z,65.10
2018-09-12T16:59:55.512Z,64.90
2018-09-12T17:04:58.603Z,65.10
2018-09-12T17:10:01.699Z,65.20
2018-09-12T17:15:04.808Z,64.90
2018-09-12T17:20:08.077Z,65.20
2018-09-12T17:25:11.125Z,65.00
2018-09-12T17:30:14.246Z,65.30
2018-09-12T17:35:17.379Z,65.20
2018-09-12T17:40:20.559Z,65.30
2018-09-12T17:45:23.676Z,65.20
2018-09-12T17:50:26.781Z,65.10
2018-09-12T17:55:29.913Z,65.30
2018-09-12T18:00:33.000Z,65.10
2018-09-12T18:05:36.236Z,65.50
2018-09-12T18:10:39.339Z,65.20
2018-09-12T18:15:42.455Z,65.50
2018-09-12T18:20:45.585Z,65.10
2018-09-12T18:25:48.683Z,65.20
2018-09-12T18:30:51.911Z,65.40
2018-09-12T18:35:55.107Z,65.40
2018-09-12T18:40:58.383Z,64.90
2018-09-12T18:46:01.471Z,65.20
2018-09-12T18:51:10.030Z,65.10
2018-09-12T18:56:13.120Z,65.20
2018-09-12T19:01:16.291Z,65.20
2018-09-12T19:06:19.415Z,65.10
2018-09-12T19:11:22.523Z,65.10
2018-09-12T19:16:25.656Z,65.30
2018-09-12T19:21:28.744Z,65.20
2018-09-12T19:26:31.879Z,65.30
2018-09-12T19:31:34.943Z,65.10
2018-09-12T19:36:43.460Z,65.10
2018-09-12T19:41:46.632Z,65.30
2018-09-12T19:46:49.715Z,65.30
2018-09-12T19:51:52.824Z,65.20
2018-09-12T19:56:55.947Z,65.10
2018-09-12T20:01:59.140Z,65.30
2018-09-12T20:07:02.299Z,64.90
2018-09-12T20:12:07.261Z,65.50
2018-09-12T20:17:10.472Z,65.30
2018-09-12T20:22:13.570Z,65.50
2018-09-12T20:27:16.672Z,65.30
2018-09-12T20:32:19.772Z,65.60
2018-09-12T20:37:22.903Z,66.30
2018-09-12T20:42:25.970Z,65.80
2018-09-12T20:47:29.144Z,65.50
2018-09-12T20:52:32.247Z,65.70
2018-09-12T20:57:35.324Z,65.60
2018-09-12T21:02:38.440Z,65.60
2018-09-12T21:07:41.523Z,65.20
2018-09-12T21:12:44.611Z,65.60
2018-09-12T21:17:47.730Z,66.10
2018-09-12T21:22:50.838Z,65.50
2018-09-12T21:27:53.976Z,65.60
2018-09-12T21:32:57.099Z,65.60
2018-09-12T21:38:00.199Z,65.80
2018-09-12T21:43:03.300Z,65.80
2018-09-12T21:48:06.420Z,65.90
2018-09-12T21:53:09.506Z,65.70
2018-09-12T21:58:12.613Z,66.00
2018-09-12T22:03:15.719Z,66.00
2018-09-12T22:08:18.821Z,65.90
2018-09-12T22:13:21.977Z,65.90
2018-09-12T22:18:25.088Z,66.10
2018-09-12T22:23:28.264Z,65.90
2018-09-12T22:28:31.530Z,65.90
2018-09-12T22:33:34.687Z,66.10
2018-09-12T22:38:37.898Z,65.90
2018-09-12T22:43:41.159Z,65.60
2018-09-12T22:48:44.250Z,65.60
2018-09-12T22:53:47.331Z,65.80
2018-09-12T22:58:50.423Z,65.80
2018-09-12T23:03:53.511Z,66.10
2018-09-12T23:08:56.628Z,65.70
2018-09-12T23:13:59.748Z,65.80
2018-09-12T23:19:02.866Z,65.80
2018-09-12T23:24:06.264Z,65.80
2018-09-12T23:29:09.378Z,65.80
2018-09-12T23:34:12.543Z,66.10
2018-09-12T23:39:15.651Z,66.00
2018-09-12T23:44:18.739Z,66.00
2018-09-12T23:49:21.848Z,66.20
2018-09-12T23:54:24.958Z,66.50
2018-09-12T23:59:28.082Z,66.10
